Home > Products > Valid Products > TAF

000
FTUS45 KLKN 240500
TAFELY
TAF
KELY 240529Z 2406/2506 18013KT P6SM SKC
     FM241700 18014G24KT P6SM SKC
     FM250500 18013KT P6SM SKC=



000
FTUS45 KLKN 240500
TAFTPH
TAF
KTPH 240529Z 2406/2506 VRB06KT P6SM SKC
     FM242000 18014G24KT P6SM SKC
     FM250200 VRB06KT P6SM SKC=



000
FTUS45 KLKN 240500
TAFEKO
TAF
KEKO 240529Z 2406/2506 VRB06KT P6SM FEW200
     FM242000 22010G20KT P6SM SKC
     FM250200 VRB06KT P6SM SKC=



000
FTUS45 KLKN 240500
TAFWMC
TAF
KWMC 240529Z 2406/2506 VRB06KT P6SM SCT130 BKN200
     FM242000 19008G18KT P6SM SKC
     FM250200 15009KT P6SM SKC=



000
FTUS45 KLKN 240100 AAA
TAFTPH
TAF AMD
KTPH 240131Z 2402/2424 18010KT P6SM BKN200
     FM240600 01007KT P6SM SKC=



000
FTUS45 KLKN 232300
TAFELY
TAF
KELY 232320Z 2400/2424 20009KT P6SM SCT200
     FM240500 18015KT P6SM SKC=



000
FTUS45 KLKN 232300
TAFEKO
TAF
KEKO 232320Z 2400/2424 24012KT P6SM SCT150 OVC180
     FM240200 VRB05KT P6SM OVC100=



000
FTUS45 KLKN 232300
TAFTPH
TAF
KTPH 232320Z 2400/2424 20010G20KT P6SM SCT250
     FM240600 01007KT P6SM SKC=



000
FTUS45 KLKN 232300
TAFWMC
TAF
KWMC 232320Z 2400/2424 33010KT P6SM BKN120 OVC150
     FM240400 25005KT P6SM VCSH OVC070=



000
FTUS45 KLKN 231700
TAFEKO
TAF
KEKO 231728Z 2318/2418 VRB05KT P6SM BKN200
     FM232000 24010G18KT P6SM SCT150 OVC180
     FM240200 VRB05KT P6SM OVC100=



000
FTUS45 KLKN 231700
TAFELY
TAF
KELY 231728Z 2318/2418 20009KT P6SM SCT250
     FM231900 20010G20KT P6SM BKN180
     FM240000 19008KT P6SM SKC
     FM240500 18015KT P6SM SKC=



000
FTUS45 KLKN 231700
TAFWMC
TAF
KWMC 231728Z 2318/2418 VRB05KT P6SM SCT110 BKN200
     FM231900 21012KT P6SM BKN120 OVC150
     FM240000 25005KT P6SM VCSH OVC070=



000
FTUS45 KLKN 231700
TAFTPH
TAF
KTPH 231728Z 2318/2418 36010KT P6SM BKN250
     FM232000 20010G20KT P6SM SCT250
     FM240600 01007KT P6SM SKC=



000
FTUS45 KLKN 231100
TAFELY
TAF
KELY 231123Z 2312/2412 19009KT P6SM SCT250
     FM231900 20011G21KT P6SM BKN180
     FM240000 19008KT P6SM SKC=



000
FTUS45 KLKN 231100
TAFTPH
TAF
KTPH 231123Z 2312/2412 36010KT P6SM BKN250
     FM232000 20010KT P6SM SCT250
     FM240600 01007KT P6SM SKC=



000
FTUS45 KLKN 231100
TAFWMC
TAF
KWMC 231123Z 2312/2412 VRB05KT P6SM SCT120 BKN200
     FM231900 21012KT P6SM BKN120 OVC150
     FM240000 25005KT P6SM VCSH OVC070=



000
FTUS45 KLKN 231100
TAFEKO
TAF
KEKO 231123Z 2312/2412 VRB05KT P6SM BKN200
     FM232000 24010G18KT P6SM SCT150 OVC180
     FM240200 VRB05KT P6SM OVC100=



000
FTUS45 KLKN 230500
TAFWMC
TAF
KWMC 230520Z 2306/2406 VRB05KT P6SM SCT120 BKN200
     FM231900 21012KT P6SM BKN120 OVC150
     FM240000 25005KT P6SM VCSH OVC070=



000
FTUS45 KLKN 230500
TAFELY
TAF
KELY 230520Z 2306/2406 18012KT P6SM SCT250
     FM231900 20011G21KT P6SM BKN180
     FM240000 19008KT P6SM SKC=



000
FTUS45 KLKN 230500
TAFEKO
TAF
KEKO 230520Z 2306/2406 VRB05KT P6SM BKN200
     FM232000 24010G18KT P6SM SCT150 OVC180
     FM240100 25005KT P6SM OVC100=



000
FTUS45 KLKN 230500
TAFTPH
TAF
KTPH 230520Z 2306/2406 36007KT P6SM BKN250
     FM232000 20010KT P6SM SCT250
     FM240000 19008KT P6SM SKC=



000
FTUS45 KLKN 222300
TAFTPH
TAF
KTPH 222320Z 2300/2324 VRB06KT P6SM BKN250
     FM230500 36007KT P6SM BKN250
     FM232000 20010KT P6SM SCT250=



000
FTUS45 KLKN 222300
TAFWMC
TAF
KWMC 222320Z 2300/2324 VRB05KT P6SM SCT120 BKN200
     FM231900 21008KT P6SM SCT120 OVC150=



000
FTUS45 KLKN 222300
TAFEKO
TAF
KEKO 222320Z 2300/2324 VRB05KT P6SM BKN200
     FM232000 24010KT P6SM SCT150 OVC180=



000
FTUS45 KLKN 222300
TAFELY
TAF
KELY 222320Z 2300/2324 VRB05KT P6SM BKN250
     FM230400 18012KT P6SM SCT250
     FM231900 20011G21KT P6SM BKN180=



000
FTUS45 KLKN 221700
TAFEKO
TAF
KEKO 221720Z 2218/2318 VRB05KT P6SM BKN200=



000
FTUS45 KLKN 221700
TAFWMC
TAF
KWMC 221720Z 2218/2318 VRB05KT P6SM SCT120 BKN200=



000
FTUS45 KLKN 221700
TAFTPH
TAF
KTPH 221720Z 2218/2318 VRB04KT P6SM BKN250
     FM222000 20010KT P6SM SCT250
     FM230500 36007KT P6SM SCT200=



000
FTUS45 KLKN 221700
TAFEKO
TAF
KEKO 221720Z 2218/2318 VRB05KT P6SM BKN200=



000
FTUS45 KLKN 221700
TAFELY
TAF
KELY 221720Z 2218/2318 VRB05KT P6SM SCT100 BKN250
     FM230400 18012KT P6SM SCT250=



000
FTUS45 KLKN 221700
TAFWMC
TAF
KWMC 221720Z 2218/2318 VRB05KT P6SM SCT120 BKN200=



000
FTUS45 KLKN 221700
TAFTPH
TAF
KTPH 221720Z 2218/2318 VRB04KT P6SM BKN250
     FM222000 20010KT P6SM SCT250
     FM230500 36007KT P6SM SCT200=



000
FTUS45 KLKN 221700
TAFELY
TAF
KELY 221720Z 2218/2318 VRB05KT P6SM SCT100 BKN250
     FM230400 18012KT P6SM SCT250=



000
FTUS45 KLKN 221100
TAFELY
TAF
KELY 221120Z 2212/2312 18008KT P6SM SCT100 BKN200
     FM230000 20012KT P6SM FEW110 SCT200=



000
FTUS45 KLKN 221100
TAFEKO
TAF
KEKO 221120Z 2212/2312 VRB06KT P6SM FEW130 BKN200
     FM222000 23008KT P6SM FEW130 BKN200
     FM230100 VRB04KT P6SM BKN130 BKN200=



000
FTUS45 KLKN 221100
TAFTPH
TAF
KTPH 221120Z 2212/2312 34011KT P6SM SCT110 BKN200
     FM222000 20007KT P6SM SCT200
     FM230600 VRB06KT P6SM SCT200=



000
FTUS45 KLKN 221100
TAFWMC
TAF
KWMC 221120Z 2212/2312 VRB06KT P6SM SCT130 BKN200
     FM222200 18006KT P6SM BKN110 BKN200=



000
FTUS45 KLKN 220500
TAFTPH
TAF
KTPH 220520Z 2206/2306 34011KT P6SM SCT110 BKN200
     FM222000 20007KT P6SM SCT200=



000
FTUS45 KLKN 220500
TAFEKO
TAF
KEKO 220520Z 2206/2306 VRB06KT P6SM FEW130 BKN200
     FM222000 23008KT P6SM FEW130 BKN200
     FM230100 VRB04KT P6SM BKN130 BKN200=



000
FTUS45 KLKN 220500
TAFELY
TAF
KELY 220520Z 2206/2306 35007KT P6SM SCT110 BKN200
     FM220900 20007KT P6SM FEW110 SCT200=



000
FTUS45 KLKN 220500
TAFWMC
TAF
KWMC 220520Z 2206/2306 VRB06KT P6SM FEW130 BKN200
     FM222200 18006KT P6SM BKN130 BKN200=



000
FTUS45 KLKN 220500
TAFWMC
TAF
KWMC 220520Z 2206/2306 VRB06KT P6SM FEW130 BKN200
     FM222200 18006KT P6SM BKN130 BKN200=



000
FTUS45 KLKN 220500
TAFEKO
TAF
KEKO 220520Z 2206/2306 VRB06KT P6SM FEW130 BKN200
     FM222000 23008KT P6SM FEW130 BKN200
     FM230100 VRB04KT P6SM BKN130 BKN200=



000
FTUS45 KLKN 220500
TAFTPH
TAF
KTPH 220520Z 2206/2306 34011KT P6SM SCT110 BKN200
     FM222000 20007KT P6SM SCT200=



000
FTUS45 KLKN 220500
TAFELY
TAF
KELY 220520Z 2206/2306 35007KT P6SM SCT110 BKN200
     FM220900 20007KT P6SM FEW110 SCT200=



000
FTUS45 KLKN 212300
TAFWMC
TAF
KWMC 212320Z 2200/2224 31006KT P6SM FEW150 SCT200
     FM220600 VRB06KT P6SM FEW090 SCT130 BKN200=



000
FTUS45 KLKN 212300
TAFELY
TAF
KELY 212320Z 2200/2224 30009KT P6SM SCT110 BKN130
     FM220100 17006KT P6SM SCT110 BKN130=



000
FTUS45 KLKN 212300
TAFEKO
TAF
KEKO 212320Z 2200/2224 VRB06KT P6SM FEW150
     FM220600 VRB06KT P6SM FEW090 SCT130 BKN200=



000
FTUS45 KLKN 212300
TAFTPH
TAF
KTPH 212320Z 2200/2224 34011KT P6SM SCT110 BKN150
     FM220900 01006KT P6SM FEW110 BKN150
     FM221800 VRB06KT P6SM SCT150 BKN170=



000
FTUS45 KLKN 212300
TAFTPH
TAF
KTPH 212320Z 2200/2224 34011KT P6SM SCT110 BKN150
     FM220900 01006KT P6SM FEW110 BKN150
     FM221800 VRB06KT P6SM SCT150 BKN170=



000
FTUS45 KLKN 212300
TAFELY
TAF
KELY 212320Z 2200/2224 30009KT P6SM SCT110 BKN130
     FM220100 17006KT P6SM SCT110 BKN130=



000
FTUS45 KLKN 212300
TAFEKO
TAF
KEKO 212320Z 2200/2224 VRB06KT P6SM FEW150
     FM220600 VRB06KT P6SM FEW090 SCT130 BKN200=



000
FTUS45 KLKN 212300
TAFWMC
TAF
KWMC 212320Z 2200/2224 31006KT P6SM FEW150 SCT200
     FM220600 VRB06KT P6SM FEW090 SCT130 BKN200=



000
FTUS45 KLKN 212200 AAA
TAFTPH
TAF AMD
KTPH 212204Z 2122/2218 33010G20KT P6SM FEW110 SCT150
     FM220100 34011KT P6SM SCT110 BKN150
     FM220900 01006KT P6SM SCT110 BKN150=



000
FTUS45 KLKN 212200 AAA
TAFTPH
TAF AMD
KTPH 212204Z 2122/2218 33010G20KT P6SM FEW110 SCT150
     FM220100 34011KT P6SM SCT110 BKN150
     FM220900 01006KT P6SM SCT110 BKN150=



000
FTUS45 KLKN 211900 AAA
TAFWMC
TAF AMD
KWMC 211918Z 2119/2218 25006KT P6SM FEW040 FEW130 SCT200
     FM220600 VRB06KT P6SM SCT130 BKN150=



000
FTUS45 KLKN 211700
TAFEKO
TAF
KEKO 211725Z 2118/2218 26010G20KT P6SM FEW060 FEW130
     FM220000 VRB06KT P6SM SCT130 BKN150=



000
FTUS45 KLKN 211700
TAFTPH
TAF
KTPH 211725Z 2118/2218 33011KT P6SM FEW110 SCT130
     FM220900 01006KT P6SM FEW130 BKN150=



000
FTUS45 KLKN 211700
TAFELY
TAF
KELY 211725Z 2118/2218 32010KT P6SM SCT130
     FM220100 17006KT P6SM FEW130 BKN150=



000
FTUS45 KLKN 211700
TAFWMC
TAF
KWMC 211725Z 2118/2218 23006KT P6SM FEW040 FEW130 SCT200
     FM220600 VRB06KT P6SM SCT130 BKN150=



000
FTUS45 KLKN 211600 AAB
TAFELY
TAF AMD
KELY 211601Z 2116/2212 32010KT P6SM SKC
     FM211800 29011KT P6SM FEW060 SCT150
     FM220200 34007KT P6SM SKC=



000
FTUS45 KLKN 211600 AAB
TAFELY
TAF AMD
KELY 211601Z 2116/2212 32010KT P6SM SKC
     FM211800 29011KT P6SM FEW060 SCT150
     FM220200 34007KT P6SM SKC=



000
FTUS45 KLKN 211600 AAB
TAFELY
TAF AMD
KELY 211601Z 2116/2212 32010KT P6SM SKC
     FM211800 29011KT P6SM FEW060 SCT150
     FM220200 34007KT P6SM SKC=



000
FTUS45 KLKN 211600 AAB
TAFELY
TAF AMD
KELY 211601Z 2116/2212 32010KT P6SM SKC
     FM211800 29011KT P6SM FEW060 SCT150
     FM220200 34007KT P6SM SKC=



000
FTUS45 KLKN 211400 AAA
TAFELY
TAF AMD
KELY 211419Z 2114/2212 18010KT P6SM SKC
     FM211800 29011KT P6SM FEW060 SCT150
     FM220200 34007KT P6SM SKC=



000
FTUS45 KLKN 211400 AAA
TAFELY
TAF AMD
KELY 211419Z 2114/2212 18010KT P6SM SKC
     FM211800 29011KT P6SM FEW060 SCT150
     FM220200 34007KT P6SM SKC=



000
FTUS45 KLKN 211100
TAFELY
TAF
KELY 211120Z 2112/2212 17012G20KT P6SM SKC
     FM211800 29011KT P6SM FEW060 SCT150
     FM220200 34007KT P6SM SKC=



000
FTUS45 KLKN 211100
TAFELY
TAF
KELY 211120Z 2112/2212 17012G20KT P6SM SKC
     FM211800 29011KT P6SM FEW060 SCT150
     FM220200 34007KT P6SM SKC=



000
FTUS45 KLKN 211100
TAFTPH
TAF
KTPH 211120Z 2112/2212 36008KT P6SM SKC
     FM211800 32008G15KT P6SM SKC
     FM220000 33008KT P6SM SKC=



000
FTUS45 KLKN 211100
TAFWMC
TAF
KWMC 211120Z 2112/2212 23010KT P6SM SCT060 SCT150
     FM212000 29005KT P6SM FEW070 SCT150
     FM220300 VRB04KT P6SM FEW150=



000
FTUS45 KLKN 211100
TAFTPH
TAF
KTPH 211120Z 2112/2212 36008KT P6SM SKC
     FM211800 32008G15KT P6SM SKC
     FM220000 33008KT P6SM SKC=



000
FTUS45 KLKN 211100
TAFWMC
TAF
KWMC 211120Z 2112/2212 23010KT P6SM SCT060 SCT150
     FM212000 29005KT P6SM FEW070 SCT150
     FM220300 VRB04KT P6SM FEW150=



000
FTUS45 KLKN 211100
TAFEKO
TAF
KEKO 211120Z 2112/2212 21006KT P6SM VCSH SCT060 BKN100
      TEMPO 2112/2114 VRB10G18KT
     FM211400 25011KT P6SM FEW060 FEW200
     FM212000 26008KT P6SM FEW060 SCT150 BKN200
     FM220400 VRB03KT P6SM SKC=



000
FTUS45 KLKN 211100
TAFTPH
TAF
KTPH 211120Z 2112/2212 36008KT P6SM SKC
     FM211800 32008G15KT P6SM SKC
     FM220000 33008KT P6SM SKC=



000
FTUS45 KLKN 211100
TAFELY
TAF
KELY 211120Z 2112/2212 17012G20KT P6SM SKC
     FM211800 29011KT P6SM FEW060 SCT150
     FM220200 34007KT P6SM SKC=



000
FTUS45 KLKN 211100
TAFEKO
TAF
KEKO 211120Z 2112/2212 21006KT P6SM VCSH SCT060 BKN100
      TEMPO 2112/2114 VRB10G18KT
     FM211400 25011KT P6SM FEW060 FEW200
     FM212000 26008KT P6SM FEW060 SCT150 BKN200
     FM220400 VRB03KT P6SM SKC=



000
FTUS45 KLKN 211100
TAFWMC
TAF
KWMC 211120Z 2112/2212 23010KT P6SM SCT060 SCT150
     FM212000 29005KT P6SM FEW070 SCT150
     FM220300 VRB04KT P6SM FEW150=



000
FTUS45 KLKN 211100
TAFELY
TAF
KELY 211120Z 2112/2212 17012G20KT P6SM SKC
     FM211800 29011KT P6SM FEW060 SCT150
     FM220200 34007KT P6SM SKC=



000
FTUS45 KLKN 211100
TAFWMC
TAF
KWMC 211120Z 2112/2212 23010KT P6SM SCT060 SCT150
     FM212000 29005KT P6SM FEW070 SCT150
     FM220300 VRB04KT P6SM FEW150=



000
FTUS45 KLKN 211100
TAFTPH
TAF
KTPH 211120Z 2112/2212 36008KT P6SM SKC
     FM211800 32008G15KT P6SM SKC
     FM220000 33008KT P6SM SKC=



000
FTUS45 KLKN 211100
TAFEKO
TAF
KEKO 211120Z 2112/2212 21006KT P6SM VCSH SCT060 BKN100
      TEMPO 2112/2114 VRB10G18KT
     FM211400 25011KT P6SM FEW060 FEW200
     FM212000 26008KT P6SM FEW060 SCT150 BKN200
     FM220400 VRB03KT P6SM SKC=



000
FTUS45 KLKN 211100
TAFEKO
TAF
KEKO 211120Z 2112/2212 21006KT P6SM VCSH SCT060 BKN100
      TEMPO 2112/2114 VRB10G18KT
     FM211400 25011KT P6SM FEW060 FEW200
     FM212000 26008KT P6SM FEW060 SCT150 BKN200
     FM220400 VRB03KT P6SM SKC=



000
FTUS45 KLKN 210900 AAA
TAFEKO
TAF AMD
KEKO 210943Z 2110/2206 20013KT P6SM VCTS SCT045CB BKN100
      TEMPO 2110/2113 VRB15G28KT -TSRA BKN050CB
     FM211400 25007KT P6SM FEW060 FEW200
     FM212000 26008KT P6SM FEW060 SCT150 BKN200
     FM220400 VRB03KT P6SM SKC=



000
FTUS45 KLKN 210900 AAA
TAFEKO
TAF AMD
KEKO 210943Z 2110/2206 20013KT P6SM VCTS SCT045CB BKN100
      TEMPO 2110/2113 VRB15G28KT -TSRA BKN050CB
     FM211400 25007KT P6SM FEW060 FEW200
     FM212000 26008KT P6SM FEW060 SCT150 BKN200
     FM220400 VRB03KT P6SM SKC=



    US Dept of Commerce
    National Oceanic and Atmospheric Administration
    National Weather Service
    1325 East West Highway
    Silver Spring, MD 20910
    Page Author: NWS Internet Services Team
Disclaimer
Information Quality
Credits
Glossary
Privacy Policy
Freedom of Information Act (FOIA)
About Us
Career Opportunities